sensor_id;sensor_type;location;lat;lon;timestamp;temperature;humidity
12013;DHT22;6065;48.138;16.402;2023-01-16T00:00:17;6.20;99.90
12013;DHT22;6065;48.138;16.402;2023-01-16T00:02:44;6.20;99.90
12013;DHT22;6065;48.138;16.402;2023-01-16T00:05:11;6.20;99.90
12013;DHT22;6065;48.138;16.402;2023-01-16T00:07:39;6.20;99.90
12013;DHT22;6065;48.138;16.402;2023-01-16T00:10:06;6.20;99.90
12013;DHT22;6065;48.138;16.402;2023-01-16T00:12:33;6.20;99.90
12013;DHT22;6065;48.138;16.402;2023-01-16T00:14:59;6.20;99.90
12013;DHT22;6065;48.138;16.402;2023-01-16T00:17:26;6.20;99.90
12013;DHT22;6065;48.138;16.402;2023-01-16T00:19:53;6.20;99.90
12013;DHT22;6065;48.138;16.402;2023-01-16T00:22:20;6.20;99.90
12013;DHT22;6065;48.138;16.402;2023-01-16T00:24:48;6.20;99.90
12013;DHT22;6065;48.138;16.402;2023-01-16T00:27:14;6.20;99.90
12013;DHT22;6065;48.138;16.402;2023-01-16T00:29:41;6.20;99.90
12013;DHT22;6065;48.138;16.402;2023-01-16T00:32:08;6.10;99.90
12013;DHT22;6065;48.138;16.402;2023-01-16T00:34:35;6.10;99.90
12013;DHT22;6065;48.138;16.402;2023-01-16T00:37:02;6.10;99.90
12013;DHT22;6065;48.138;16.402;2023-01-16T00:39:29;6.10;99.90
12013;DHT22;6065;48.138;16.402;2023-01-16T00:41:57;6.10;99.90
12013;DHT22;6065;48.138;16.402;2023-01-16T00:44:23;6.10;99.90
12013;DHT22;6065;48.138;16.402;2023-01-16T00:46:50;6.10;99.90
12013;DHT22;6065;48.138;16.402;2023-01-16T00:49:20;6.10;99.90
12013;DHT22;6065;48.138;16.402;2023-01-16T00:51:47;6.10;99.90
12013;DHT22;6065;48.138;16.402;2023-01-16T00:54:13;6.10;99.90
12013;DHT22;6065;48.138;16.402;2023-01-16T00:56:40;6.10;99.90
12013;DHT22;6065;48.138;16.402;2023-01-16T00:59:09;6.10;99.90
12013;DHT22;6065;48.138;16.402;2023-01-16T01:01:35;6.10;99.90
12013;DHT22;6065;48.138;16.402;2023-01-16T01:04:02;6.10;99.90
12013;DHT22;6065;48.138;16.402;2023-01-16T01:06:29;6.10;99.90
12013;DHT22;6065;48.138;16.402;2023-01-16T01:08:55;6.10;99.90
12013;DHT22;6065;48.138;16.402;2023-01-16T01:11:22;6.10;99.90
12013;DHT22;6065;48.138;16.402;2023-01-16T01:13:49;6.10;99.90
12013;DHT22;6065;48.138;16.402;2023-01-16T01:16:17;6.00;99.90
12013;DHT22;6065;48.138;16.402;2023-01-16T01:18:44;6.10;99.90
12013;DHT22;6065;48.138;16.402;2023-01-16T01:21:11;6.10;99.90
12013;DHT22;6065;48.138;16.402;2023-01-16T01:23:37;6.10;99.90
12013;DHT22;6065;48.138;16.402;2023-01-16T01:26:05;6.10;99.90
12013;DHT22;6065;48.138;16.402;2023-01-16T01:28:31;6.10;99.90
12013;DHT22;6065;48.138;16.402;2023-01-16T01:31:01;6.10;99.90
12013;DHT22;6065;48.138;16.402;2023-01-16T01:33:29;6.10;99.90
12013;DHT22;6065;48.138;16.402;2023-01-16T01:35:55;6.10;99.90
12013;DHT22;6065;48.138;16.402;2023-01-16T01:38:22;6.10;99.90
12013;DHT22;6065;48.138;16.402;2023-01-16T01:40:49;6.00;99.90
12013;DHT22;6065;48.138;16.402;2023-01-16T01:43:16;6.00;99.90
12013;DHT22;6065;48.138;16.402;2023-01-16T01:45:43;6.00;99.90
12013;DHT22;6065;48.138;16.402;2023-01-16T01:48:15;6.00;99.90
12013;DHT22;6065;48.138;16.402;2023-01-16T01:50:47;6.10;99.90
12013;DHT22;6065;48.138;16.402;2023-01-16T01:53:15;6.00;99.90
12013;DHT22;6065;48.138;16.402;2023-01-16T01:55:43;6.00;99.90
12013;DHT22;6065;48.138;16.402;2023-01-16T01:58:11;6.00;99.90
12013;DHT22;6065;48.138;16.402;2023-01-16T02:00:45;6.00;99.90
12013;DHT22;6065;48.138;16.402;2023-01-16T02:03:13;6.10;99.90
12013;DHT22;6065;48.138;16.402;2023-01-16T02:05:42;6.00;99.90
12013;DHT22;6065;48.138;16.402;2023-01-16T02:08:11;6.00;99.90
12013;DHT22;6065;48.138;16.402;2023-01-16T02:10:40;6.00;99.90
12013;DHT22;6065;48.138;16.402;2023-01-16T02:13:08;6.00;99.90
12013;DHT22;6065;48.138;16.402;2023-01-16T02:15:35;6.00;99.90
12013;DHT22;6065;48.138;16.402;2023-01-16T02:18:22;6.00;99.90
12013;DHT22;6065;48.138;16.402;2023-01-16T02:21:09;5.90;99.90
12013;DHT22;6065;48.138;16.402;2023-01-16T02:23:47;5.90;99.90
12013;DHT22;6065;48.138;16.402;2023-01-16T02:26:28;6.00;99.90
12013;DHT22;6065;48.138;16.402;2023-01-16T02:31:42;5.90;99.90
12013;DHT22;6065;48.138;16.402;2023-01-16T02:34:17;5.90;99.90
12013;DHT22;6065;48.138;16.402;2023-01-16T02:36:47;6.00;99.90
12013;DHT22;6065;48.138;16.402;2023-01-16T02:39:18;6.00;99.90
12013;DHT22;6065;48.138;16.402;2023-01-16T02:41:51;6.00;99.90
12013;DHT22;6065;48.138;16.402;2023-01-16T02:44:22;6.00;99.90
12013;DHT22;6065;48.138;16.402;2023-01-16T02:46:56;6.00;99.90
12013;DHT22;6065;48.138;16.402;2023-01-16T02:49:27;5.90;99.90
12013;DHT22;6065;48.138;16.402;2023-01-16T02:51:56;5.90;99.90
12013;DHT22;6065;48.138;16.402;2023-01-16T02:54:26;5.90;99.90
12013;DHT22;6065;48.138;16.402;2023-01-16T02:56:56;5.90;99.90
12013;DHT22;6065;48.138;16.402;2023-01-16T02:59:23;5.90;99.90
12013;DHT22;6065;48.138;16.402;2023-01-16T03:01:51;5.90;99.90
12013;DHT22;6065;48.138;16.402;2023-01-16T03:07:05;5.80;99.90
12013;DHT22;6065;48.138;16.402;2023-01-16T03:09:37;5.80;99.90
12013;DHT22;6065;48.138;16.402;2023-01-16T03:12:15;5.80;99.90
12013;DHT22;6065;48.138;16.402;2023-01-16T03:14:48;5.80;99.90
12013;DHT22;6065;48.138;16.402;2023-01-16T03:17:21;5.80;99.90
12013;DHT22;6065;48.138;16.402;2023-01-16T03:19:58;5.80;99.90
12013;DHT22;6065;48.138;16.402;2023-01-16T03:22:32;5.70;99.90
12013;DHT22;6065;48.138;16.402;2023-01-16T03:25:08;5.70;99.90
12013;DHT22;6065;48.138;16.402;2023-01-16T03:27:40;5.70;99.90
12013;DHT22;6065;48.138;16.402;2023-01-16T03:30:10;5.70;99.90
12013;DHT22;6065;48.138;16.402;2023-01-16T03:32:39;5.70;99.90
12013;DHT22;6065;48.138;16.402;2023-01-16T03:35:08;5.70;99.90
12013;DHT22;6065;48.138;16.402;2023-01-16T03:37:39;5.70;99.90
12013;DHT22;6065;48.138;16.402;2023-01-16T03:40:08;5.70;99.90
12013;DHT22;6065;48.138;16.402;2023-01-16T03:42:36;5.70;99.90
12013;DHT22;6065;48.138;16.402;2023-01-16T03:45:05;5.70;99.90
12013;DHT22;6065;48.138;16.402;2023-01-16T03:47:34;5.70;99.90
12013;DHT22;6065;48.138;16.402;2023-01-16T03:50:04;5.70;99.90
12013;DHT22;6065;48.138;16.402;2023-01-16T03:52:32;5.70;99.90
12013;DHT22;6065;48.138;16.402;2023-01-16T03:55:04;5.70;99.90
12013;DHT22;6065;48.138;16.402;2023-01-16T03:57:34;5.60;99.90
12013;DHT22;6065;48.138;16.402;2023-01-16T04:00:03;5.60;99.90
12013;DHT22;6065;48.138;16.402;2023-01-16T04:02:30;5.60;99.90
12013;DHT22;6065;48.138;16.402;2023-01-16T04:05:00;5.50;99.90
12013;DHT22;6065;48.138;16.402;2023-01-16T04:07:29;5.50;99.90
12013;DHT22;6065;48.138;16.402;2023-01-16T04:09:58;5.50;99.90
12013;DHT22;6065;48.138;16.402;2023-01-16T04:12:27;5.50;99.90
12013;DHT22;6065;48.138;16.402;2023-01-16T04:14:55;5.50;99.90
12013;DHT22;6065;48.138;16.402;2023-01-16T04:17:23;5.50;99.90
12013;DHT22;6065;48.138;16.402;2023-01-16T04:19:50;5.60;99.90
12013;DHT22;6065;48.138;16.402;2023-01-16T04:22:20;5.60;99.90
12013;DHT22;6065;48.138;16.402;2023-01-16T04:24:47;5.50;99.90
12013;DHT22;6065;48.138;16.402;2023-01-16T04:27:14;5.40;99.90
12013;DHT22;6065;48.138;16.402;2023-01-16T04:29:42;5.30;99.90
12013;DHT22;6065;48.138;16.402;2023-01-16T04:32:09;5.10;99.90
12013;DHT22;6065;48.138;16.402;2023-01-16T04:34:36;5.10;99.90
12013;DHT22;6065;48.138;16.402;2023-01-16T04:37:03;5.00;99.90
12013;DHT22;6065;48.138;16.402;2023-01-16T04:39:30;5.00;99.90
12013;DHT22;6065;48.138;16.402;2023-01-16T04:41:56;5.00;99.90
12013;DHT22;6065;48.138;16.402;2023-01-16T04:44:23;4.90;99.90
12013;DHT22;6065;48.138;16.402;2023-01-16T04:46:51;4.90;99.90
12013;DHT22;6065;48.138;16.402;2023-01-16T04:49:19;4.90;99.90
12013;DHT22;6065;48.138;16.402;2023-01-16T04:51:46;4.90;99.90
12013;DHT22;6065;48.138;16.402;2023-01-16T04:54:13;4.90;99.90
12013;DHT22;6065;48.138;16.402;2023-01-16T04:56:40;4.80;99.90
12013;DHT22;6065;48.138;16.402;2023-01-16T04:59:07;4.80;99.90
12013;DHT22;6065;48.138;16.402;2023-01-16T05:01:34;4.80;99.90
12013;DHT22;6065;48.138;16.402;2023-01-16T05:04:04;4.80;99.90
12013;DHT22;6065;48.138;16.402;2023-01-16T05:06:31;4.80;99.90
12013;DHT22;6065;48.138;16.402;2023-01-16T05:08:58;4.80;99.90
12013;DHT22;6065;48.138;16.402;2023-01-16T05:11:25;4.80;99.90
12013;DHT22;6065;48.138;16.402;2023-01-16T05:13:52;4.90;99.90
12013;DHT22;6065;48.138;16.402;2023-01-16T05:16:19;4.90;99.90
12013;DHT22;6065;48.138;16.402;2023-01-16T05:18:46;4.90;99.90
12013;DHT22;6065;48.138;16.402;2023-01-16T05:21:14;4.90;99.90
12013;DHT22;6065;48.138;16.402;2023-01-16T05:23:41;4.90;99.90
12013;DHT22;6065;48.138;16.402;2023-01-16T05:26:08;4.80;99.90
12013;DHT22;6065;48.138;16.402;2023-01-16T05:28:36;4.80;99.90
12013;DHT22;6065;48.138;16.402;2023-01-16T05:31:02;4.80;99.90
12013;DHT22;6065;48.138;16.402;2023-01-16T05:33:29;4.80;99.90
12013;DHT22;6065;48.138;16.402;2023-01-16T05:35:56;4.80;99.90
12013;DHT22;6065;48.138;16.402;2023-01-16T05:38:24;4.80;99.90
12013;DHT22;6065;48.138;16.402;2023-01-16T05:40:51;4.70;99.90
12013;DHT22;6065;48.138;16.402;2023-01-16T05:43:17;4.70;99.90
12013;DHT22;6065;48.138;16.402;2023-01-16T05:45:44;4.80;99.90
12013;DHT22;6065;48.138;16.402;2023-01-16T05:48:11;4.70;99.90
12013;DHT22;6065;48.138;16.402;2023-01-16T05:50:37;4.70;99.90
12013;DHT22;6065;48.138;16.402;2023-01-16T05:53:04;4.70;99.90
12013;DHT22;6065;48.138;16.402;2023-01-16T05:55:32;4.70;99.90
12013;DHT22;6065;48.138;16.402;2023-01-16T05:58:00;4.80;99.90
12013;DHT22;6065;48.138;16.402;2023-01-16T06:00:26;4.80;99.90
12013;DHT22;6065;48.138;16.402;2023-01-16T06:02:53;4.80;99.90
12013;DHT22;6065;48.138;16.402;2023-01-16T06:05:20;4.80;99.90
12013;DHT22;6065;48.138;16.402;2023-01-16T06:07:47;4.70;99.90
12013;DHT22;6065;48.138;16.402;2023-01-16T06:10:13;4.70;99.90
12013;DHT22;6065;48.138;16.402;2023-01-16T06:12:42;4.70;99.90
12013;DHT22;6065;48.138;16.402;2023-01-16T06:15:09;4.70;99.90
12013;DHT22;6065;48.138;16.402;2023-01-16T06:17:36;4.70;99.90
12013;DHT22;6065;48.138;16.402;2023-01-16T06:20:03;4.70;99.90
12013;DHT22;6065;48.138;16.402;2023-01-16T06:22:29;4.70;99.90
12013;DHT22;6065;48.138;16.402;2023-01-16T06:24:56;4.60;99.90
12013;DHT22;6065;48.138;16.402;2023-01-16T06:27:23;4.60;99.90
12013;DHT22;6065;48.138;16.402;2023-01-16T06:29:51;4.60;99.90
12013;DHT22;6065;48.138;16.402;2023-01-16T06:32:17;4.60;99.90
12013;DHT22;6065;48.138;16.402;2023-01-16T06:34:44;4.50;99.90
12013;DHT22;6065;48.138;16.402;2023-01-16T06:37:11;4.60;99.90
12013;DHT22;6065;48.138;16.402;2023-01-16T06:39:38;4.60;99.90
12013;DHT22;6065;48.138;16.402;2023-01-16T06:42:04;4.60;99.90
12013;DHT22;6065;48.138;16.402;2023-01-16T06:44:31;4.60;99.90
12013;DHT22;6065;48.138;16.402;2023-01-16T06:46:59;4.60;99.90
12013;DHT22;6065;48.138;16.402;2023-01-16T06:49:26;4.60;99.90
12013;DHT22;6065;48.138;16.402;2023-01-16T06:51:53;4.50;99.90
12013;DHT22;6065;48.138;16.402;2023-01-16T06:54:19;4.50;99.90
12013;DHT22;6065;48.138;16.402;2023-01-16T06:56:46;4.50;99.90
12013;DHT22;6065;48.138;16.402;2023-01-16T06:59:13;4.50;99.90
12013;DHT22;6065;48.138;16.402;2023-01-16T07:01:40;4.50;99.90
12013;DHT22;6065;48.138;16.402;2023-01-16T07:04:08;4.50;99.90
12013;DHT22;6065;48.138;16.402;2023-01-16T07:06:35;4.50;99.90
12013;DHT22;6065;48.138;16.402;2023-01-16T07:09:02;4.50;99.90
12013;DHT22;6065;48.138;16.402;2023-01-16T07:11:29;4.50;99.90
12013;DHT22;6065;48.138;16.402;2023-01-16T07:13:55;4.50;99.90
12013;DHT22;6065;48.138;16.402;2023-01-16T07:16:36;4.40;99.90
12013;DHT22;6065;48.138;16.402;2023-01-16T07:19:22;4.40;99.90
12013;DHT22;6065;48.138;16.402;2023-01-16T07:22:06;4.40;99.90
12013;DHT22;6065;48.138;16.402;2023-01-16T07:24:51;4.40;99.90
12013;DHT22;6065;48.138;16.402;2023-01-16T07:27:17;4.40;99.90
12013;DHT22;6065;48.138;16.402;2023-01-16T07:29:44;4.40;99.90
12013;DHT22;6065;48.138;16.402;2023-01-16T07:32:11;4.40;99.90
12013;DHT22;6065;48.138;16.402;2023-01-16T07:34:39;4.40;99.90
12013;DHT22;6065;48.138;16.402;2023-01-16T07:37:05;4.40;99.90
12013;DHT22;6065;48.138;16.402;2023-01-16T07:39:35;4.40;99.90
12013;DHT22;6065;48.138;16.402;2023-01-16T07:42:03;4.40;99.90
12013;DHT22;6065;48.138;16.402;2023-01-16T07:44:29;4.40;99.90
12013;DHT22;6065;48.138;16.402;2023-01-16T07:46:56;4.40;99.90
12013;DHT22;6065;48.138;16.402;2023-01-16T07:49:23;4.40;99.90
12013;DHT22;6065;48.138;16.402;2023-01-16T07:51:51;4.40;99.90
12013;DHT22;6065;48.138;16.402;2023-01-16T07:54:18;4.30;99.90
12013;DHT22;6065;48.138;16.402;2023-01-16T07:56:46;4.30;99.90
12013;DHT22;6065;48.138;16.402;2023-01-16T07:59:13;4.30;99.90
12013;DHT22;6065;48.138;16.402;2023-01-16T08:01:40;4.30;99.90
12013;DHT22;6065;48.138;16.402;2023-01-16T08:04:08;4.30;99.90
12013;DHT22;6065;48.138;16.402;2023-01-16T08:06:34;4.30;99.90
12013;DHT22;6065;48.138;16.402;2023-01-16T08:09:02;4.30;99.90
12013;DHT22;6065;48.138;16.402;2023-01-16T08:11:29;4.30;99.90
12013;DHT22;6065;48.138;16.402;2023-01-16T08:14:03;4.30;99.90
12013;DHT22;6065;48.138;16.402;2023-01-16T08:16:30;4.20;99.90
12013;DHT22;6065;48.138;16.402;2023-01-16T08:18:57;4.20;99.90
12013;DHT22;6065;48.138;16.402;2023-01-16T08:21:24;4.20;99.90
12013;DHT22;6065;48.138;16.402;2023-01-16T08:23:51;4.20;99.90
12013;DHT22;6065;48.138;16.402;2023-01-16T08:26:19;4.20;99.90
12013;DHT22;6065;48.138;16.402;2023-01-16T08:28:46;4.20;99.90
12013;DHT22;6065;48.138;16.402;2023-01-16T08:31:13;4.20;99.90
12013;DHT22;6065;48.138;16.402;2023-01-16T08:33:42;4.20;99.90
12013;DHT22;6065;48.138;16.402;2023-01-16T08:36:09;4.20;99.90
12013;DHT22;6065;48.138;16.402;2023-01-16T08:38:36;4.30;99.90
12013;DHT22;6065;48.138;16.402;2023-01-16T08:41:02;4.30;99.90
12013;DHT22;6065;48.138;16.402;2023-01-16T08:43:31;4.30;99.90
12013;DHT22;6065;48.138;16.402;2023-01-16T08:46:16;4.30;99.90
12013;DHT22;6065;48.138;16.402;2023-01-16T08:49:01;4.30;99.90
12013;DHT22;6065;48.138;16.402;2023-01-16T08:51:45;4.40;99.90
12013;DHT22;6065;48.138;16.402;2023-01-16T08:54:12;4.40;99.90
12013;DHT22;6065;48.138;16.402;2023-01-16T08:56:39;4.40;99.90
12013;DHT22;6065;48.138;16.402;2023-01-16T08:59:09;4.40;99.90
12013;DHT22;6065;48.138;16.402;2023-01-16T09:01:36;4.40;99.90
12013;DHT22;6065;48.138;16.402;2023-01-16T09:04:04;4.40;99.90
12013;DHT22;6065;48.138;16.402;2023-01-16T09:06:30;4.50;99.90
12013;DHT22;6065;48.138;16.402;2023-01-16T09:08:57;4.50;99.90
12013;DHT22;6065;48.138;16.402;2023-01-16T09:11:24;4.40;99.90
12013;DHT22;6065;48.138;16.402;2023-01-16T09:14:09;4.40;99.90
12013;DHT22;6065;48.138;16.402;2023-01-16T09:16:36;4.50;99.90
12013;DHT22;6065;48.138;16.402;2023-01-16T09:19:02;4.50;99.90
12013;DHT22;6065;48.138;16.402;2023-01-16T09:21:29;4.50;99.90
12013;DHT22;6065;48.138;16.402;2023-01-16T09:23:56;4.60;99.90
12013;DHT22;6065;48.138;16.402;2023-01-16T09:26:22;4.60;99.90
12013;DHT22;6065;48.138;16.402;2023-01-16T09:28:49;4.60;99.90
12013;DHT22;6065;48.138;16.402;2023-01-16T09:31:17;4.70;99.90
12013;DHT22;6065;48.138;16.402;2023-01-16T09:33:45;4.60;99.90
12013;DHT22;6065;48.138;16.402;2023-01-16T09:36:12;4.60;99.90
12013;DHT22;6065;48.138;16.402;2023-01-16T09:38:39;4.70;99.90
12013;DHT22;6065;48.138;16.402;2023-01-16T09:41:08;4.70;99.90
12013;DHT22;6065;48.138;16.402;2023-01-16T09:43:59;4.80;99.90
12013;DHT22;6065;48.138;16.402;2023-01-16T09:46:27;4.80;99.90
12013;DHT22;6065;48.138;16.402;2023-01-16T09:48:56;4.70;99.90
12013;DHT22;6065;48.138;16.402;2023-01-16T09:51:26;4.80;99.90
12013;DHT22;6065;48.138;16.402;2023-01-16T09:53:54;4.80;99.90
12013;DHT22;6065;48.138;16.402;2023-01-16T09:56:40;4.80;99.90
12013;DHT22;6065;48.138;16.402;2023-01-16T09:59:27;4.80;99.90
12013;DHT22;6065;48.138;16.402;2023-01-16T10:01:59;4.80;99.90
12013;DHT22;6065;48.138;16.402;2023-01-16T10:04:27;4.90;99.90
12013;DHT22;6065;48.138;16.402;2023-01-16T10:06:58;4.90;99.90
12013;DHT22;6065;48.138;16.402;2023-01-16T10:09:27;4.90;99.90
12013;DHT22;6065;48.138;16.402;2023-01-16T10:11:57;5.00;99.90
12013;DHT22;6065;48.138;16.402;2023-01-16T10:14:28;5.00;99.90
12013;DHT22;6065;48.138;16.402;2023-01-16T10:17:02;5.00;99.90
12013;DHT22;6065;48.138;16.402;2023-01-16T10:19:34;5.10;99.90
12013;DHT22;6065;48.138;16.402;2023-01-16T10:22:07;5.10;99.90
12013;DHT22;6065;48.138;16.402;2023-01-16T10:24:43;5.20;99.90
12013;DHT22;6065;48.138;16.402;2023-01-16T10:27:14;5.20;99.90
12013;DHT22;6065;48.138;16.402;2023-01-16T10:29:44;5.20;99.90
12013;DHT22;6065;48.138;16.402;2023-01-16T10:32:16;5.20;99.90
12013;DHT22;6065;48.138;16.402;2023-01-16T10:34:48;5.20;99.90
12013;DHT22;6065;48.138;16.402;2023-01-16T10:37:17;5.20;99.90
12013;DHT22;6065;48.138;16.402;2023-01-16T10:39:44;5.20;99.90
12013;DHT22;6065;48.138;16.402;2023-01-16T10:42:12;5.20;99.90
12013;DHT22;6065;48.138;16.402;2023-01-16T10:44:58;5.20;99.90
12013;DHT22;6065;48.138;16.402;2023-01-16T10:47:46;5.30;99.90
12013;DHT22;6065;48.138;16.402;2023-01-16T10:50:30;5.30;99.90
12013;DHT22;6065;48.138;16.402;2023-01-16T10:52:57;5.20;99.90
12013;DHT22;6065;48.138;16.402;2023-01-16T10:55:24;5.20;99.90
12013;DHT22;6065;48.138;16.402;2023-01-16T10:57:52;5.20;99.90
12013;DHT22;6065;48.138;16.402;2023-01-16T11:00:19;5.20;99.90
12013;DHT22;6065;48.138;16.402;2023-01-16T11:02:51;5.30;99.90
12013;DHT22;6065;48.138;16.402;2023-01-16T11:05:22;5.20;99.90
12013;DHT22;6065;48.138;16.402;2023-01-16T11:07:51;5.30;99.90
12013;DHT22;6065;48.138;16.402;2023-01-16T11:10:18;5.30;99.90
12013;DHT22;6065;48.138;16.402;2023-01-16T11:12:45;5.30;99.90
12013;DHT22;6065;48.138;16.402;2023-01-16T11:15:29;5.30;99.90
12013;DHT22;6065;48.138;16.402;2023-01-16T11:18:22;5.30;99.90
12013;DHT22;6065;48.138;16.402;2023-01-16T11:20:55;5.30;99.90
12013;DHT22;6065;48.138;16.402;2023-01-16T11:23:24;5.20;99.90
12013;DHT22;6065;48.138;16.402;2023-01-16T11:25:51;5.30;99.90
12013;DHT22;6065;48.138;16.402;2023-01-16T11:28:20;5.30;99.90
12013;DHT22;6065;48.138;16.402;2023-01-16T11:30:47;5.30;99.90
12013;DHT22;6065;48.138;16.402;2023-01-16T11:33:16;5.30;99.90
12013;DHT22;6065;48.138;16.402;2023-01-16T11:35:47;5.30;99.90
12013;DHT22;6065;48.138;16.402;2023-01-16T11:38:17;5.30;99.90
12013;DHT22;6065;48.138;16.402;2023-01-16T11:40:44;5.30;99.90
12013;DHT22;6065;48.138;16.402;2023-01-16T11:43:12;5.20;99.90
12013;DHT22;6065;48.138;16.402;2023-01-16T11:45:57;5.20;99.90
12013;DHT22;6065;48.138;16.402;2023-01-16T11:48:37;5.20;99.90
12013;DHT22;6065;48.138;16.402;2023-01-16T11:51:06;5.30;99.90
12013;DHT22;6065;48.138;16.402;2023-01-16T11:53:36;5.30;99.90
12013;DHT22;6065;48.138;16.402;2023-01-16T11:56:07;5.30;99.90
12013;DHT22;6065;48.138;16.402;2023-01-16T11:58:41;5.30;99.90
12013;DHT22;6065;48.138;16.402;2023-01-16T12:01:10;5.20;99.90
12013;DHT22;6065;48.138;16.402;2023-01-16T12:03:46;5.20;99.90
12013;DHT22;6065;48.138;16.402;2023-01-16T12:06:24;5.10;99.90
12013;DHT22;6065;48.138;16.402;2023-01-16T12:08:58;5.20;99.90
12013;DHT22;6065;48.138;16.402;2023-01-16T12:11:34;5.20;99.90
12013;DHT22;6065;48.138;16.402;2023-01-16T12:14:04;5.20;99.90
12013;DHT22;6065;48.138;16.402;2023-01-16T12:16:48;5.20;99.90
12013;DHT22;6065;48.138;16.402;2023-01-16T12:22:01;5.30;99.90
12013;DHT22;6065;48.138;16.402;2023-01-16T12:24:33;5.30;99.90
12013;DHT22;6065;48.138;16.402;2023-01-16T12:27:08;5.30;99.90
12013;DHT22;6065;48.138;16.402;2023-01-16T12:29:41;5.30;99.90
12013;DHT22;6065;48.138;16.402;2023-01-16T12:32:17;5.30;99.90
12013;DHT22;6065;48.138;16.402;2023-01-16T12:34:58;5.30;99.90
12013;DHT22;6065;48.138;16.402;2023-01-16T12:37:39;5.40;99.90
12013;DHT22;6065;48.138;16.402;2023-01-16T12:42:42;5.30;99.90
12013;DHT22;6065;48.138;16.402;2023-01-16T12:45:31;5.30;99.90
12013;DHT22;6065;48.138;16.402;2023-01-16T12:48:05;5.30;99.90
12013;DHT22;6065;48.138;16.402;2023-01-16T12:50:37;5.30;99.90
12013;DHT22;6065;48.138;16.402;2023-01-16T12:55:52;5.30;99.90
12013;DHT22;6065;48.138;16.402;2023-01-16T12:58:23;5.20;99.90
12013;DHT22;6065;48.138;16.402;2023-01-16T13:01:01;5.20;99.90
12013;DHT22;6065;48.138;16.402;2023-01-16T13:03:33;5.20;99.90
12013;DHT22;6065;48.138;16.402;2023-01-16T13:06:05;5.20;99.90
12013;DHT22;6065;48.138;16.402;2023-01-16T13:08:34;5.20;99.90
12013;DHT22;6065;48.138;16.402;2023-01-16T13:11:06;5.20;99.90
12013;DHT22;6065;48.138;16.402;2023-01-16T13:14:09;5.20;99.90
12013;DHT22;6065;48.138;16.402;2023-01-16T13:16:38;5.10;99.90
12013;DHT22;6065;48.138;16.402;2023-01-16T13:19:09;5.10;99.90
12013;DHT22;6065;48.138;16.402;2023-01-16T13:21:39;5.10;99.90
12013;DHT22;6065;48.138;16.402;2023-01-16T13:24:11;5.00;99.90
12013;DHT22;6065;48.138;16.402;2023-01-16T13:26:42;5.00;99.90
12013;DHT22;6065;48.138;16.402;2023-01-16T13:29:13;5.00;99.90
12013;DHT22;6065;48.138;16.402;2023-01-16T13:31:42;4.90;99.90
12013;DHT22;6065;48.138;16.402;2023-01-16T13:34:11;4.90;99.90
12013;DHT22;6065;48.138;16.402;2023-01-16T13:36:47;4.90;99.90
12013;DHT22;6065;48.138;16.402;2023-01-16T13:42:07;4.80;99.90
12013;DHT22;6065;48.138;16.402;2023-01-16T13:44:38;4.80;99.90
12013;DHT22;6065;48.138;16.402;2023-01-16T13:47:24;4.80;99.90
12013;DHT22;6065;48.138;16.402;2023-01-16T13:49:54;4.70;99.90
12013;DHT22;6065;48.138;16.402;2023-01-16T13:52:21;4.70;99.90
12013;DHT22;6065;48.138;16.402;2023-01-16T13:54:52;4.70;99.90
12013;DHT22;6065;48.138;16.402;2023-01-16T13:57:22;4.70;99.90
12013;DHT22;6065;48.138;16.402;2023-01-16T13:59:50;4.70;99.90
12013;DHT22;6065;48.138;16.402;2023-01-16T14:02:26;4.70;99.90
12013;DHT22;6065;48.138;16.402;2023-01-16T14:05:15;4.70;99.90
12013;DHT22;6065;48.138;16.402;2023-01-16T14:07:49;4.70;99.90
12013;DHT22;6065;48.138;16.402;2023-01-16T14:10:38;4.60;99.90
12013;DHT22;6065;48.138;16.402;2023-01-16T14:13:13;4.60;99.90
12013;DHT22;6065;48.138;16.402;2023-01-16T14:15:49;4.60;99.90
12013;DHT22;6065;48.138;16.402;2023-01-16T14:18:38;4.60;99.90
12013;DHT22;6065;48.138;16.402;2023-01-16T14:21:10;4.50;99.90
12013;DHT22;6065;48.138;16.402;2023-01-16T14:23:40;4.50;99.90
12013;DHT22;6065;48.138;16.402;2023-01-16T14:26:31;4.50;99.90
12013;DHT22;6065;48.138;16.402;2023-01-16T14:29:01;4.50;99.90
12013;DHT22;6065;48.138;16.402;2023-01-16T14:31:37;4.50;99.90
12013;DHT22;6065;48.138;16.402;2023-01-16T14:34:05;4.50;99.90
12013;DHT22;6065;48.138;16.402;2023-01-16T14:36:38;4.50;99.90
12013;DHT22;6065;48.138;16.402;2023-01-16T14:39:20;4.50;99.90
12013;DHT22;6065;48.138;16.402;2023-01-16T14:41:50;4.40;99.90
12013;DHT22;6065;48.138;16.402;2023-01-16T14:44:36;4.40;99.90
12013;DHT22;6065;48.138;16.402;2023-01-16T14:47:44;4.40;99.90
12013;DHT22;6065;48.138;16.402;2023-01-16T14:53:31;4.30;99.90
12013;DHT22;6065;48.138;16.402;2023-01-16T14:56:20;4.30;99.90
12013;DHT22;6065;48.138;16.402;2023-01-16T14:58:50;4.30;99.90
12013;DHT22;6065;48.138;16.402;2023-01-16T15:01:21;4.30;99.90
12013;DHT22;6065;48.138;16.402;2023-01-16T15:04:07;4.30;99.90
12013;DHT22;6065;48.138;16.402;2023-01-16T15:06:39;4.30;99.90
12013;DHT22;6065;48.138;16.402;2023-01-16T15:09:11;4.30;99.90
12013;DHT22;6065;48.138;16.402;2023-01-16T15:11:41;4.30;99.90
12013;DHT22;6065;48.138;16.402;2023-01-16T15:14:12;4.20;99.90
12013;DHT22;6065;48.138;16.402;2023-01-16T15:16:54;4.20;99.90
12013;DHT22;6065;48.138;16.402;2023-01-16T15:19:53;4.20;99.90
12013;DHT22;6065;48.138;16.402;2023-01-16T15:22:39;4.20;99.90
12013;DHT22;6065;48.138;16.402;2023-01-16T15:25:09;4.20;99.90
12013;DHT22;6065;48.138;16.402;2023-01-16T15:27:41;4.20;99.90
12013;DHT22;6065;48.138;16.402;2023-01-16T15:30:11;4.20;99.90
12013;DHT22;6065;48.138;16.402;2023-01-16T15:32:55;4.30;99.90
12013;DHT22;6065;48.138;16.402;2023-01-16T15:35:44;4.20;99.90
12013;DHT22;6065;48.138;16.402;2023-01-16T15:38:22;4.20;99.90
12013;DHT22;6065;48.138;16.402;2023-01-16T15:40:50;4.20;99.90
12013;DHT22;6065;48.138;16.402;2023-01-16T15:43:18;4.20;99.90
12013;DHT22;6065;48.138;16.402;2023-01-16T15:46:03;4.10;99.90
12013;DHT22;6065;48.138;16.402;2023-01-16T15:48:50;4.10;99.90
12013;DHT22;6065;48.138;16.402;2023-01-16T15:51:21;4.10;99.90
12013;DHT22;6065;48.138;16.402;2023-01-16T15:53:49;4.10;99.90
12013;DHT22;6065;48.138;16.402;2023-01-16T15:56:21;4.10;99.90
12013;DHT22;6065;48.138;16.402;2023-01-16T15:58:50;4.00;99.90
12013;DHT22;6065;48.138;16.402;2023-01-16T16:01:26;4.00;99.90
12013;DHT22;6065;48.138;16.402;2023-01-16T16:03:55;4.00;99.90
12013;DHT22;6065;48.138;16.402;2023-01-16T16:06:24;4.10;99.90
12013;DHT22;6065;48.138;16.402;2023-01-16T16:08:54;4.00;99.90
12013;DHT22;6065;48.138;16.402;2023-01-16T16:11:25;4.00;99.90
12013;DHT22;6065;48.138;16.402;2023-01-16T16:14:12;4.00;99.90
12013;DHT22;6065;48.138;16.402;2023-01-16T16:17:01;3.90;99.90
12013;DHT22;6065;48.138;16.402;2023-01-16T16:19:47;3.90;99.90
12013;DHT22;6065;48.138;16.402;2023-01-16T16:22:15;3.90;99.90
12013;DHT22;6065;48.138;16.402;2023-01-16T16:25:05;3.90;99.90
12013;DHT22;6065;48.138;16.402;2023-01-16T16:27:32;3.90;99.90